sensor_id;sensor_type;location;lat;lon;timestamp;P1;durP1;ratioP1;P2;durP2;ratioP2
15132;SDS011;7667;51.232;17.110;2023-08-31T00:01:47;5.90;;;5.30;;
15132;SDS011;7667;51.232;17.110;2023-08-31T00:04:20;6.07;;;5.50;;
15132;SDS011;7667;51.232;17.110;2023-08-31T00:06:47;6.60;;;5.97;;
15132;SDS011;7667;51.232;17.110;2023-08-31T00:09:15;6.87;;;6.23;;
15132;SDS011;7667;51.232;17.110;2023-08-31T00:11:42;8.10;;;7.30;;
15132;SDS011;7667;51.232;17.110;2023-08-31T00:14:10;7.07;;;6.37;;
15132;SDS011;7667;51.232;17.110;2023-08-31T00:16:38;6.50;;;5.90;;
15132;SDS011;7667;51.232;17.110;2023-08-31T00:19:05;7.90;;;7.20;;
15132;SDS011;7667;51.232;17.110;2023-08-31T00:21:33;7.63;;;6.73;;
15132;SDS011;7667;51.232;17.110;2023-08-31T00:24:00;7.60;;;6.90;;
15132;SDS011;7667;51.232;17.110;2023-08-31T00:26:28;7.33;;;6.63;;
15132;SDS011;7667;51.232;17.110;2023-08-31T00:28:57;7.70;;;6.97;;
15132;SDS011;7667;51.232;17.110;2023-08-31T00:31:25;7.67;;;6.87;;
15132;SDS011;7667;51.232;17.110;2023-08-31T00:33:54;7.13;;;6.53;;
15132;SDS011;7667;51.232;17.110;2023-08-31T00:36:22;7.73;;;6.40;;
15132;SDS011;7667;51.232;17.110;2023-08-31T00:38:49;6.87;;;6.27;;
15132;SDS011;7667;51.232;17.110;2023-08-31T00:41:18;7.10;;;6.07;;
15132;SDS011;7667;51.232;17.110;2023-08-31T00:43:46;6.40;;;5.80;;
15132;SDS011;7667;51.232;17.110;2023-08-31T00:46:14;7.37;;;6.23;;
15132;SDS011;7667;51.232;17.110;2023-08-31T00:48:43;6.67;;;6.00;;
15132;SDS011;7667;51.232;17.110;2023-08-31T00:51:10;6.47;;;5.87;;
15132;SDS011;7667;51.232;17.110;2023-08-31T00:53:38;7.03;;;6.43;;
15132;SDS011;7667;51.232;17.110;2023-08-31T00:56:07;6.57;;;5.97;;
15132;SDS011;7667;51.232;17.110;2023-08-31T00:58:35;6.37;;;5.87;;
15132;SDS011;7667;51.232;17.110;2023-08-31T01:01:11;7.03;;;5.93;;
15132;SDS011;7667;51.232;17.110;2023-08-31T01:12:29;7.00;;;6.30;;
15132;SDS011;7667;51.232;17.110;2023-08-31T01:15:20;6.37;;;5.77;;
15132;SDS011;7667;51.232;17.110;2023-08-31T01:17:50;6.70;;;6.10;;
15132;SDS011;7667;51.232;17.110;2023-08-31T01:21:05;6.63;;;5.93;;
15132;SDS011;7667;51.232;17.110;2023-08-31T01:23:19;6.63;;;6.03;;
15132;SDS011;7667;51.232;17.110;2023-08-31T01:25:48;6.10;;;5.60;;
15132;SDS011;7667;51.232;17.110;2023-08-31T01:28:16;6.93;;;6.27;;
15132;SDS011;7667;51.232;17.110;2023-08-31T01:30:44;6.57;;;5.97;;
15132;SDS011;7667;51.232;17.110;2023-08-31T01:33:12;6.20;;;5.70;;
15132;SDS011;7667;51.232;17.110;2023-08-31T01:35:44;5.60;;;5.10;;
15132;SDS011;7667;51.232;17.110;2023-08-31T01:38:20;6.70;;;6.10;;
15132;SDS011;7667;51.232;17.110;2023-08-31T01:41:00;8.47;;;5.40;;
15132;SDS011;7667;51.232;17.110;2023-08-31T01:43:34;5.93;;;5.20;;
15132;SDS011;7667;51.232;17.110;2023-08-31T01:46:03;6.33;;;5.83;;
15132;SDS011;7667;51.232;17.110;2023-08-31T01:48:31;7.63;;;6.10;;
15132;SDS011;7667;51.232;17.110;2023-08-31T01:51:06;6.40;;;5.23;;
15132;SDS011;7667;51.232;17.110;2023-08-31T01:53:35;6.40;;;5.83;;
15132;SDS011;7667;51.232;17.110;2023-08-31T01:56:03;7.53;;;6.87;;
15132;SDS011;7667;51.232;17.110;2023-08-31T01:58:31;8.80;;;7.90;;
15132;SDS011;7667;51.232;17.110;2023-08-31T02:00:59;8.73;;;7.67;;
15132;SDS011;7667;51.232;17.110;2023-08-31T02:03:26;7.73;;;6.97;;
15132;SDS011;7667;51.232;17.110;2023-08-31T02:05:54;8.40;;;7.50;;
15132;SDS011;7667;51.232;17.110;2023-08-31T02:08:22;7.73;;;7.03;;
15132;SDS011;7667;51.232;17.110;2023-08-31T02:10:49;7.47;;;6.30;;
15132;SDS011;7667;51.232;17.110;2023-08-31T02:13:17;7.23;;;6.40;;
15132;SDS011;7667;51.232;17.110;2023-08-31T02:15:45;6.73;;;6.13;;
15132;SDS011;7667;51.232;17.110;2023-08-31T02:18:12;6.27;;;5.67;;
15132;SDS011;7667;51.232;17.110;2023-08-31T02:20:40;6.23;;;5.63;;
15132;SDS011;7667;51.232;17.110;2023-08-31T02:23:08;5.80;;;5.30;;
15132;SDS011;7667;51.232;17.110;2023-08-31T02:25:36;6.40;;;5.30;;
15132;SDS011;7667;51.232;17.110;2023-08-31T02:28:04;6.23;;;5.20;;
15132;SDS011;7667;51.232;17.110;2023-08-31T02:30:32;7.17;;;5.80;;
15132;SDS011;7667;51.232;17.110;2023-08-31T02:33:00;6.17;;;5.50;;
15132;SDS011;7667;51.232;17.110;2023-08-31T02:35:28;5.83;;;5.33;;
15132;SDS011;7667;51.232;17.110;2023-08-31T02:37:55;5.70;;;5.20;;
15132;SDS011;7667;51.232;17.110;2023-08-31T02:40:23;5.47;;;4.97;;
15132;SDS011;7667;51.232;17.110;2023-08-31T02:42:50;5.67;;;5.07;;
15132;SDS011;7667;51.232;17.110;2023-08-31T02:45:19;5.87;;;5.27;;
15132;SDS011;7667;51.232;17.110;2023-08-31T02:47:47;5.43;;;4.93;;
15132;SDS011;7667;51.232;17.110;2023-08-31T02:50:16;6.00;;;4.87;;
15132;SDS011;7667;51.232;17.110;2023-08-31T02:52:44;5.63;;;4.83;;
15132;SDS011;7667;51.232;17.110;2023-08-31T02:55:11;6.60;;;5.40;;
15132;SDS011;7667;51.232;17.110;2023-08-31T02:57:39;5.57;;;5.07;;
15132;SDS011;7667;51.232;17.110;2023-08-31T03:00:07;5.60;;;5.10;;
15132;SDS011;7667;51.232;17.110;2023-08-31T03:02:39;5.77;;;4.90;;
15132;SDS011;7667;51.232;17.110;2023-08-31T03:05:07;5.17;;;4.67;;
15132;SDS011;7667;51.232;17.110;2023-08-31T03:07:35;5.20;;;4.80;;
15132;SDS011;7667;51.232;17.110;2023-08-31T03:10:02;5.77;;;5.10;;
15132;SDS011;7667;51.232;17.110;2023-08-31T03:12:30;5.33;;;4.83;;
15132;SDS011;7667;51.232;17.110;2023-08-31T03:14:57;5.60;;;5.10;;
15132;SDS011;7667;51.232;17.110;2023-08-31T03:17:25;5.90;;;5.17;;
15132;SDS011;7667;51.232;17.110;2023-08-31T03:19:53;6.03;;;5.43;;
15132;SDS011;7667;51.232;17.110;2023-08-31T03:22:20;6.13;;;5.53;;
15132;SDS011;7667;51.232;17.110;2023-08-31T03:24:51;6.97;;;6.27;;
15132;SDS011;7667;51.232;17.110;2023-08-31T03:27:27;11.53;;;7.73;;
15132;SDS011;7667;51.232;17.110;2023-08-31T03:29:55;7.37;;;6.67;;
15132;SDS011;7667;51.232;17.110;2023-08-31T03:32:22;7.07;;;6.37;;
15132;SDS011;7667;51.232;17.110;2023-08-31T03:34:53;6.40;;;5.40;;
15132;SDS011;7667;51.232;17.110;2023-08-31T03:37:21;5.37;;;4.87;;
15132;SDS011;7667;51.232;17.110;2023-08-31T03:39:48;6.23;;;5.30;;
15132;SDS011;7667;51.232;17.110;2023-08-31T03:42:16;5.67;;;5.17;;
15132;SDS011;7667;51.232;17.110;2023-08-31T03:44:44;7.27;;;5.50;;
15132;SDS011;7667;51.232;17.110;2023-08-31T03:47:11;5.77;;;5.27;;
15132;SDS011;7667;51.232;17.110;2023-08-31T03:49:39;6.37;;;5.40;;
15132;SDS011;7667;51.232;17.110;2023-08-31T03:52:06;6.70;;;5.97;;
15132;SDS011;7667;51.232;17.110;2023-08-31T03:54:34;6.83;;;6.10;;
15132;SDS011;7667;51.232;17.110;2023-08-31T03:57:01;5.53;;;5.00;;
15132;SDS011;7667;51.232;17.110;2023-08-31T03:59:29;7.03;;;6.33;;
15132;SDS011;7667;51.232;17.110;2023-08-31T04:01:57;5.97;;;5.10;;
15132;SDS011;7667;51.232;17.110;2023-08-31T04:04:24;5.40;;;4.90;;
15132;SDS011;7667;51.232;17.110;2023-08-31T04:06:52;7.00;;;6.37;;
15132;SDS011;7667;51.232;17.110;2023-08-31T04:09:19;7.23;;;6.53;;
15132;SDS011;7667;51.232;17.110;2023-08-31T04:11:47;8.20;;;7.27;;
15132;SDS011;7667;51.232;17.110;2023-08-31T04:14:14;8.40;;;7.60;;
15132;SDS011;7667;51.232;17.110;2023-08-31T04:16:44;7.50;;;6.80;;
15132;SDS011;7667;51.232;17.110;2023-08-31T04:19:16;8.43;;;7.63;;
15132;SDS011;7667;51.232;17.110;2023-08-31T04:21:44;9.10;;;6.13;;
15132;SDS011;7667;51.232;17.110;2023-08-31T04:24:11;6.07;;;5.47;;
15132;SDS011;7667;51.232;17.110;2023-08-31T04:26:39;7.23;;;5.70;;
15132;SDS011;7667;51.232;17.110;2023-08-31T04:29:07;6.70;;;5.73;;
15132;SDS011;7667;51.232;17.110;2023-08-31T04:31:34;6.47;;;5.87;;
15132;SDS011;7667;51.232;17.110;2023-08-31T04:34:02;6.97;;;6.37;;
15132;SDS011;7667;51.232;17.110;2023-08-31T04:36:30;9.50;;;6.90;;
15132;SDS011;7667;51.232;17.110;2023-08-31T04:38:57;7.07;;;6.37;;
15132;SDS011;7667;51.232;17.110;2023-08-31T04:41:25;8.63;;;6.30;;
15132;SDS011;7667;51.232;17.110;2023-08-31T04:43:53;7.30;;;6.57;;
15132;SDS011;7667;51.232;17.110;2023-08-31T04:46:21;7.07;;;6.37;;
15132;SDS011;7667;51.232;17.110;2023-08-31T04:48:48;6.97;;;6.27;;
15132;SDS011;7667;51.232;17.110;2023-08-31T04:51:28;8.13;;;6.03;;
15132;SDS011;7667;51.232;17.110;2023-08-31T04:54:01;6.97;;;5.87;;
15132;SDS011;7667;51.232;17.110;2023-08-31T04:56:30;7.60;;;6.40;;
15132;SDS011;7667;51.232;17.110;2023-08-31T04:59:00;8.30;;;6.63;;
15132;SDS011;7667;51.232;17.110;2023-08-31T05:01:29;7.77;;;7.07;;
15132;SDS011;7667;51.232;17.110;2023-08-31T05:03:57;11.30;;;6.90;;
15132;SDS011;7667;51.232;17.110;2023-08-31T05:06:25;7.47;;;6.77;;
15132;SDS011;7667;51.232;17.110;2023-08-31T05:08:53;7.63;;;6.70;;
15132;SDS011;7667;51.232;17.110;2023-08-31T05:11:21;7.97;;;6.50;;
15132;SDS011;7667;51.232;17.110;2023-08-31T05:13:48;7.93;;;7.13;;
15132;SDS011;7667;51.232;17.110;2023-08-31T05:16:16;6.40;;;5.83;;
15132;SDS011;7667;51.232;17.110;2023-08-31T05:18:44;7.00;;;6.40;;
15132;SDS011;7667;51.232;17.110;2023-08-31T05:21:11;6.70;;;6.00;;
15132;SDS011;7667;51.232;17.110;2023-08-31T05:23:39;6.33;;;5.53;;
15132;SDS011;7667;51.232;17.110;2023-08-31T05:26:06;6.70;;;5.80;;
15132;SDS011;7667;51.232;17.110;2023-08-31T05:28:34;6.70;;;6.10;;
15132;SDS011;7667;51.232;17.110;2023-08-31T05:31:02;8.23;;;7.03;;
15132;SDS011;7667;51.232;17.110;2023-08-31T05:33:30;7.23;;;6.20;;
15132;SDS011;7667;51.232;17.110;2023-08-31T05:36:01;7.10;;;6.50;;
15132;SDS011;7667;51.232;17.110;2023-08-31T05:38:30;7.03;;;6.33;;
15132;SDS011;7667;51.232;17.110;2023-08-31T05:41:05;6.77;;;6.17;;
15132;SDS011;7667;51.232;17.110;2023-08-31T05:43:34;6.60;;;6.00;;
15132;SDS011;7667;51.232;17.110;2023-08-31T05:46:02;7.27;;;5.90;;
15132;SDS011;7667;51.232;17.110;2023-08-31T05:48:30;6.27;;;5.50;;
15132;SDS011;7667;51.232;17.110;2023-08-31T05:50:58;5.90;;;5.40;;
15132;SDS011;7667;51.232;17.110;2023-08-31T05:53:26;6.20;;;5.60;;
15132;SDS011;7667;51.232;17.110;2023-08-31T05:55:54;6.53;;;5.93;;
15132;SDS011;7667;51.232;17.110;2023-08-31T05:58:30;6.60;;;5.90;;
15132;SDS011;7667;51.232;17.110;2023-08-31T06:01:05;6.63;;;5.93;;
15132;SDS011;7667;51.232;17.110;2023-08-31T06:03:32;7.37;;;5.90;;
15132;SDS011;7667;51.232;17.110;2023-08-31T06:06:01;7.97;;;6.37;;
15132;SDS011;7667;51.232;17.110;2023-08-31T06:08:30;6.40;;;5.80;;
15132;SDS011;7667;51.232;17.110;2023-08-31T06:10:58;6.97;;;6.27;;
15132;SDS011;7667;51.232;17.110;2023-08-31T06:13:25;6.80;;;5.70;;
15132;SDS011;7667;51.232;17.110;2023-08-31T06:15:54;8.70;;;5.90;;
15132;SDS011;7667;51.232;17.110;2023-08-31T06:18:26;6.97;;;6.37;;
15132;SDS011;7667;51.232;17.110;2023-08-31T06:20:54;6.90;;;6.30;;
15132;SDS011;7667;51.232;17.110;2023-08-31T06:23:21;6.70;;;5.97;;
15132;SDS011;7667;51.232;17.110;2023-08-31T06:25:49;6.67;;;6.07;;
15132;SDS011;7667;51.232;17.110;2023-08-31T06:28:17;7.60;;;6.77;;
15132;SDS011;7667;51.232;17.110;2023-08-31T06:30:44;8.17;;;6.67;;
15132;SDS011;7667;51.232;17.110;2023-08-31T06:33:15;6.70;;;6.10;;
15132;SDS011;7667;51.232;17.110;2023-08-31T06:35:47;7.10;;;6.40;;
15132;SDS011;7667;51.232;17.110;2023-08-31T06:38:19;7.70;;;6.93;;
15132;SDS011;7667;51.232;17.110;2023-08-31T06:40:47;7.20;;;6.43;;
15132;SDS011;7667;51.232;17.110;2023-08-31T06:43:14;7.50;;;6.77;;
15132;SDS011;7667;51.232;17.110;2023-08-31T06:45:42;8.00;;;7.20;;
15132;SDS011;7667;51.232;17.110;2023-08-31T06:48:09;8.13;;;7.13;;
15132;SDS011;7667;51.232;17.110;2023-08-31T06:50:38;8.17;;;7.40;;
15132;SDS011;7667;51.232;17.110;2023-08-31T06:53:05;7.90;;;7.00;;
15132;SDS011;7667;51.232;17.110;2023-08-31T06:55:33;8.50;;;7.70;;
15132;SDS011;7667;51.232;17.110;2023-08-31T06:58:01;7.90;;;7.20;;
15132;SDS011;7667;51.232;17.110;2023-08-31T07:00:31;8.13;;;7.33;;
15132;SDS011;7667;51.232;17.110;2023-08-31T07:03:01;7.63;;;6.93;;
15132;SDS011;7667;51.232;17.110;2023-08-31T07:05:36;8.30;;;7.50;;
15132;SDS011;7667;51.232;17.110;2023-08-31T07:08:08;8.30;;;7.50;;
15132;SDS011;7667;51.232;17.110;2023-08-31T07:10:36;7.97;;;7.17;;
15132;SDS011;7667;51.232;17.110;2023-08-31T07:13:05;9.13;;;7.40;;
15132;SDS011;7667;51.232;17.110;2023-08-31T07:15:33;9.10;;;7.20;;
15132;SDS011;7667;51.232;17.110;2023-08-31T07:18:01;8.20;;;6.70;;
15132;SDS011;7667;51.232;17.110;2023-08-31T07:20:28;7.30;;;6.63;;
15132;SDS011;7667;51.232;17.110;2023-08-31T07:22:56;7.87;;;7.23;;
15132;SDS011;7667;51.232;17.110;2023-08-31T07:25:23;7.60;;;6.90;;
15132;SDS011;7667;51.232;17.110;2023-08-31T07:27:51;7.37;;;6.67;;
15132;SDS011;7667;51.232;17.110;2023-08-31T07:30:19;7.57;;;6.77;;
15132;SDS011;7667;51.232;17.110;2023-08-31T07:32:46;7.20;;;6.50;;
15132;SDS011;7667;51.232;17.110;2023-08-31T07:35:14;7.20;;;6.60;;
15132;SDS011;7667;51.232;17.110;2023-08-31T07:37:42;6.20;;;5.60;;
15132;SDS011;7667;51.232;17.110;2023-08-31T07:40:09;6.93;;;6.23;;
15132;SDS011;7667;51.232;17.110;2023-08-31T07:42:38;6.97;;;5.93;;
15132;SDS011;7667;51.232;17.110;2023-08-31T07:45:06;6.53;;;5.93;;
15132;SDS011;7667;51.232;17.110;2023-08-31T07:47:34;5.53;;;5.03;;
15132;SDS011;7667;51.232;17.110;2023-08-31T07:57:44;5.80;;;5.30;;
15132;SDS011;7667;51.232;17.110;2023-08-31T08:00:14;6.60;;;5.17;;
15132;SDS011;7667;51.232;17.110;2023-08-31T08:02:42;5.30;;;4.53;;
15132;SDS011;7667;51.232;17.110;2023-08-31T08:05:11;4.57;;;4.20;;
15132;SDS011;7667;51.232;17.110;2023-08-31T08:07:39;5.53;;;4.77;;
15132;SDS011;7667;51.232;17.110;2023-08-31T08:13:20;4.37;;;3.97;;
15132;SDS011;7667;51.232;17.110;2023-08-31T08:15:48;5.60;;;4.43;;
15132;SDS011;7667;51.232;17.110;2023-08-31T08:18:16;4.57;;;4.10;;
15132;SDS011;7667;51.232;17.110;2023-08-31T08:22:04;5.10;;;3.70;;
15132;SDS011;7667;51.232;17.110;2023-08-31T08:24:32;4.70;;;4.20;;
15132;SDS011;7667;51.232;17.110;2023-08-31T08:26:59;4.03;;;3.67;;
15132;SDS011;7667;51.232;17.110;2023-08-31T08:29:27;4.17;;;3.77;;
15132;SDS011;7667;51.232;17.110;2023-08-31T08:31:55;4.17;;;3.77;;
15132;SDS011;7667;51.232;17.110;2023-08-31T08:34:22;3.47;;;3.17;;
15132;SDS011;7667;51.232;17.110;2023-08-31T08:36:50;4.77;;;3.40;;
15132;SDS011;7667;51.232;17.110;2023-08-31T08:39:17;3.30;;;3.00;;
15132;SDS011;7667;51.232;17.110;2023-08-31T08:41:45;3.50;;;3.20;;
15132;SDS011;7667;51.232;17.110;2023-08-31T08:44:13;6.30;;;4.30;;
15132;SDS011;7667;51.232;17.110;2023-08-31T08:46:44;3.63;;;3.20;;
15132;SDS011;7667;51.232;17.110;2023-08-31T08:49:13;4.93;;;3.23;;
15132;SDS011;7667;51.232;17.110;2023-08-31T08:51:42;3.53;;;2.80;;
15132;SDS011;7667;51.232;17.110;2023-08-31T08:54:10;3.17;;;2.87;;
15132;SDS011;7667;51.232;17.110;2023-08-31T08:56:37;2.97;;;2.77;;
15132;SDS011;7667;51.232;17.110;2023-08-31T08:59:05;3.17;;;2.87;;
15132;SDS011;7667;51.232;17.110;2023-08-31T09:01:34;3.10;;;2.80;;
15132;SDS011;7667;51.232;17.110;2023-08-31T09:04:02;3.20;;;2.90;;
15132;SDS011;7667;51.232;17.110;2023-08-31T09:06:30;3.37;;;3.00;;
15132;SDS011;7667;51.232;17.110;2023-08-31T09:08:58;3.20;;;2.90;;
15132;SDS011;7667;51.232;17.110;2023-08-31T09:11:25;3.00;;;2.80;;
15132;SDS011;7667;51.232;17.110;2023-08-31T09:13:53;2.80;;;2.60;;
15132;SDS011;7667;51.232;17.110;2023-08-31T09:16:28;2.57;;;2.33;;
15132;SDS011;7667;51.232;17.110;2023-08-31T09:18:57;2.27;;;2.07;;
15132;SDS011;7667;51.232;17.110;2023-08-31T09:21:38;2.20;;;2.00;;
15132;SDS011;7667;51.232;17.110;2023-08-31T09:24:07;2.27;;;2.07;;
15132;SDS011;7667;51.232;17.110;2023-08-31T09:26:48;2.27;;;2.07;;
15132;SDS011;7667;51.232;17.110;2023-08-31T09:29:23;2.00;;;1.73;;
15132;SDS011;7667;51.232;17.110;2023-08-31T09:31:51;1.93;;;1.83;;
15132;SDS011;7667;51.232;17.110;2023-08-31T09:34:19;2.20;;;2.00;;
15132;SDS011;7667;51.232;17.110;2023-08-31T09:36:48;3.00;;;2.40;;
15132;SDS011;7667;51.232;17.110;2023-08-31T09:39:17;2.60;;;2.03;;
15132;SDS011;7667;51.232;17.110;2023-08-31T09:41:54;2.00;;;1.87;;
15132;SDS011;7667;51.232;17.110;2023-08-31T09:44:22;2.80;;;2.20;;
15132;SDS011;7667;51.232;17.110;2023-08-31T09:46:49;1.83;;;1.73;;
15132;SDS011;7667;51.232;17.110;2023-08-31T09:49:19;1.80;;;1.70;;
15132;SDS011;7667;51.232;17.110;2023-08-31T09:51:49;1.90;;;1.80;;
15132;SDS011;7667;51.232;17.110;2023-08-31T09:54:18;2.00;;;1.80;;
15132;SDS011;7667;51.232;17.110;2023-08-31T09:56:49;2.43;;;1.87;;
15132;SDS011;7667;51.232;17.110;2023-08-31T09:59:18;2.27;;;2.00;;
15132;SDS011;7667;51.232;17.110;2023-08-31T10:01:46;2.13;;;2.00;;
15132;SDS011;7667;51.232;17.110;2023-08-31T10:04:14;2.20;;;2.00;;
15132;SDS011;7667;51.232;17.110;2023-08-31T10:06:43;2.87;;;2.17;;
15132;SDS011;7667;51.232;17.110;2023-08-31T10:09:11;1.97;;;1.83;;
15132;SDS011;7667;51.232;17.110;2023-08-31T10:11:40;2.10;;;1.90;;
15132;SDS011;7667;51.232;17.110;2023-08-31T10:14:11;2.60;;;2.30;;
15132;SDS011;7667;51.232;17.110;2023-08-31T10:16:40;2.37;;;2.00;;
15132;SDS011;7667;51.232;17.110;2023-08-31T10:19:11;2.20;;;2.00;;
15132;SDS011;7667;51.232;17.110;2023-08-31T10:21:40;2.40;;;2.20;;
15132;SDS011;7667;51.232;17.110;2023-08-31T10:24:08;2.00;;;1.90;;
15132;SDS011;7667;51.232;17.110;2023-08-31T10:26:35;2.17;;;1.90;;
15132;SDS011;7667;51.232;17.110;2023-08-31T10:29:03;1.73;;;1.60;;
15132;SDS011;7667;51.232;17.110;2023-08-31T10:31:33;1.77;;;1.67;;
15132;SDS011;7667;51.232;17.110;2023-08-31T10:34:02;2.37;;;1.90;;
15132;SDS011;7667;51.232;17.110;2023-08-31T10:39:17;2.57;;;1.73;;
15132;SDS011;7667;51.232;17.110;2023-08-31T10:41:55;2.67;;;1.63;;
15132;SDS011;7667;51.232;17.110;2023-08-31T10:44:29;3.07;;;2.00;;
15132;SDS011;7667;51.232;17.110;2023-08-31T10:47:03;2.77;;;2.10;;
15132;SDS011;7667;51.232;17.110;2023-08-31T10:49:31;2.70;;;2.10;;
15132;SDS011;7667;51.232;17.110;2023-08-31T10:54:51;2.00;;;1.80;;
15132;SDS011;7667;51.232;17.110;2023-08-31T10:57:29;3.20;;;2.00;;
15132;SDS011;7667;51.232;17.110;2023-08-31T10:59:58;3.37;;;2.50;;
15132;SDS011;7667;51.232;17.110;2023-08-31T11:02:35;2.40;;;2.20;;
15132;SDS011;7667;51.232;17.110;2023-08-31T11:07:47;2.37;;;2.10;;
15132;SDS011;7667;51.232;17.110;2023-08-31T11:10:18;2.87;;;2.13;;
15132;SDS011;7667;51.232;17.110;2023-08-31T11:12:48;2.53;;;2.20;;
15132;SDS011;7667;51.232;17.110;2023-08-31T11:15:19;3.67;;;2.60;;
15132;SDS011;7667;51.232;17.110;2023-08-31T11:17:50;2.30;;;2.10;;
15132;SDS011;7667;51.232;17.110;2023-08-31T11:20:21;2.37;;;2.20;;
15132;SDS011;7667;51.232;17.110;2023-08-31T11:22:50;2.70;;;2.50;;
15132;SDS011;7667;51.232;17.110;2023-08-31T11:25:21;2.67;;;2.47;;
15132;SDS011;7667;51.232;17.110;2023-08-31T11:27:55;2.90;;;2.50;;
15132;SDS011;7667;51.232;17.110;2023-08-31T11:30:28;2.90;;;2.40;;
15132;SDS011;7667;51.232;17.110;2023-08-31T11:35:39;2.90;;;2.60;;
15132;SDS011;7667;51.232;17.110;2023-08-31T11:38:11;2.87;;;2.40;;
15132;SDS011;7667;51.232;17.110;2023-08-31T11:40:39;2.83;;;2.47;;
15132;SDS011;7667;51.232;17.110;2023-08-31T11:43:08;3.90;;;2.80;;
15132;SDS011;7667;51.232;17.110;2023-08-31T11:45:36;3.30;;;3.00;;
15132;SDS011;7667;51.232;17.110;2023-08-31T11:48:06;3.07;;;2.80;;
15132;SDS011;7667;51.232;17.110;2023-08-31T11:50:35;3.33;;;2.90;;
15132;SDS011;7667;51.232;17.110;2023-08-31T11:53:03;3.70;;;2.90;;
15132;SDS011;7667;51.232;17.110;2023-08-31T11:55:31;3.13;;;2.57;;
15132;SDS011;7667;51.232;17.110;2023-08-31T11:58:00;2.87;;;2.53;;
15132;SDS011;7667;51.232;17.110;2023-08-31T12:00:28;3.97;;;2.60;;
15132;SDS011;7667;51.232;17.110;2023-08-31T12:03:00;3.20;;;2.83;;
15132;SDS011;7667;51.232;17.110;2023-08-31T12:05:44;2.77;;;2.50;;
15132;SDS011;7667;51.232;17.110;2023-08-31T12:08:25;2.63;;;2.43;;
15132;SDS011;7667;51.232;17.110;2023-08-31T12:10:53;2.87;;;2.40;;
15132;SDS011;7667;51.232;17.110;2023-08-31T12:13:25;2.93;;;2.50;;
15132;SDS011;7667;51.232;17.110;2023-08-31T12:15:57;2.53;;;2.33;;
15132;SDS011;7667;51.232;17.110;2023-08-31T12:18:25;2.43;;;2.23;;
15132;SDS011;7667;51.232;17.110;2023-08-31T12:21:00;4.70;;;2.38;;
15132;SDS011;7667;51.232;17.110;2023-08-31T12:23:27;1.98;;;1.88;;
15132;SDS011;7667;51.232;17.110;2023-08-31T12:25:55;2.57;;;2.10;;
15132;SDS011;7667;51.232;17.110;2023-08-31T12:28:23;3.00;;;2.40;;
15132;SDS011;7667;51.232;17.110;2023-08-31T12:30:54;3.23;;;2.20;;
15132;SDS011;7667;51.232;17.110;2023-08-31T12:33:23;2.90;;;2.30;;
15132;SDS011;7667;51.232;17.110;2023-08-31T12:35:51;2.40;;;2.20;;
15132;SDS011;7667;51.232;17.110;2023-08-31T12:38:19;1.85;;;1.75;;
15132;SDS011;7667;51.232;17.110;2023-08-31T12:40:46;2.60;;;2.17;;
15132;SDS011;7667;51.232;17.110;2023-08-31T12:43:14;2.13;;;1.80;;
15132;SDS011;7667;51.232;17.110;2023-08-31T12:45:43;2.30;;;2.10;;
15132;SDS011;7667;51.232;17.110;2023-08-31T12:48:11;2.47;;;2.27;;
15132;SDS011;7667;51.232;17.110;2023-08-31T12:50:40;2.87;;;2.10;;
15132;SDS011;7667;51.232;17.110;2023-08-31T12:53:07;2.97;;;2.20;;
15132;SDS011;7667;51.232;17.110;2023-08-31T12:55:35;2.20;;;2.00;;
15132;SDS011;7667;51.232;17.110;2023-08-31T12:58:02;2.17;;;1.88;;
15132;SDS011;7667;51.232;17.110;2023-08-31T13:00:30;4.15;;;2.20;;
15132;SDS011;7667;51.232;17.110;2023-08-31T13:02:58;1.83;;;1.58;;
15132;SDS011;7667;51.232;17.110;2023-08-31T13:05:27;2.25;;;1.85;;
15132;SDS011;7667;51.232;17.110;2023-08-31T13:07:55;2.15;;;1.85;;
15132;SDS011;7667;51.232;17.110;2023-08-31T13:10:23;2.20;;;1.80;;
15132;SDS011;7667;51.232;17.110;2023-08-31T13:12:50;2.92;;;1.50;;
15132;SDS011;7667;51.232;17.110;2023-08-31T13:15:18;1.98;;;1.70;;
15132;SDS011;7667;51.232;17.110;2023-08-31T13:17:46;3.80;;;1.60;;
15132;SDS011;7667;51.232;17.110;2023-08-31T13:20:13;1.90;;;1.70;;
15132;SDS011;7667;51.232;17.110;2023-08-31T13:22:41;1.88;;;1.63;;
15132;SDS011;7667;51.232;17.110;2023-08-31T13:25:09;1.92;;;1.70;;
15132;SDS011;7667;51.232;17.110;2023-08-31T13:27:38;3.17;;;1.67;;
15132;SDS011;7667;51.232;17.110;2023-08-31T13:30:05;3.65;;;1.80;;
15132;SDS011;7667;51.232;17.110;2023-08-31T13:32:35;2.35;;;1.67;;
15132;SDS011;7667;51.232;17.110;2023-08-31T13:35:03;2.22;;;1.65;;
15132;SDS011;7667;51.232;17.110;2023-08-31T13:37:34;1.75;;;1.65;;
15132;SDS011;7667;51.232;17.110;2023-08-31T13:40:02;3.67;;;1.80;;
15132;SDS011;7667;51.232;17.110;2023-08-31T13:42:34;2.83;;;1.80;;
15132;SDS011;7667;51.232;17.110;2023-08-31T13:45:08;2.75;;;1.63;;
15132;SDS011;7667;51.232;17.110;2023-08-31T13:47:36;4.20;;;1.58;;
15132;SDS011;7667;51.232;17.110;2023-08-31T13:50:04;2.70;;;1.70;;
15132;SDS011;7667;51.232;17.110;2023-08-31T13:52:33;2.20;;;1.85;;
15132;SDS011;7667;51.232;17.110;2023-08-31T13:55:01;1.90;;;1.77;;
15132;SDS011;7667;51.232;17.110;2023-08-31T13:57:30;3.00;;;1.90;;
15132;SDS011;7667;51.232;17.110;2023-08-31T13:59:57;5.10;;;1.90;;
15132;SDS011;7667;51.232;17.110;2023-08-31T14:02:25;2.30;;;1.80;;
15132;SDS011;7667;51.232;17.110;2023-08-31T14:04:53;2.07;;;1.67;;
15132;SDS011;7667;51.232;17.110;2023-08-31T14:07:21;2.37;;;1.70;;
15132;SDS011;7667;51.232;17.110;2023-08-31T14:09:48;2.97;;;1.93;;
15132;SDS011;7667;51.232;17.110;2023-08-31T14:12:17;1.73;;;1.60;;
15132;SDS011;7667;51.232;17.110;2023-08-31T14:14:45;3.47;;;1.83;;
15132;SDS011;7667;51.232;17.110;2023-08-31T14:17:13;2.30;;;1.80;;
15132;SDS011;7667;51.232;17.110;2023-08-31T14:19:40;4.18;;;1.70;;
15132;SDS011;7667;51.232;17.110;2023-08-31T14:22:08;3.60;;;1.98;;
15132;SDS011;7667;51.232;17.110;2023-08-31T14:24:36;1.65;;;1.40;;
15132;SDS011;7667;51.232;17.110;2023-08-31T14:27:04;2.17;;;1.50;;
15132;SDS011;7667;51.232;17.110;2023-08-31T14:29:32;2.58;;;1.60;;
15132;SDS011;7667;51.232;17.110;2023-08-31T14:32:01;2.85;;;1.60;;
15132;SDS011;7667;51.232;17.110;2023-08-31T14:34:29;3.35;;;1.45;;
15132;SDS011;7667;51.232;17.110;2023-08-31T14:36:58;2.03;;;1.48;;
15132;SDS011;7667;51.232;17.110;2023-08-31T14:39:27;1.67;;;1.48;;
15132;SDS011;7667;51.232;17.110;2023-08-31T14:41:58;1.92;;;1.52;;
15132;SDS011;7667;51.232;17.110;2023-08-31T14:44:26;2.63;;;1.42;;
15132;SDS011;7667;51.232;17.110;2023-08-31T14:46:54;1.92;;;1.50;;
15132;SDS011;7667;51.232;17.110;2023-08-31T14:49:24;1.75;;;1.50;;
15132;SDS011;7667;51.232;17.110;2023-08-31T14:51:52;1.80;;;1.25;;
15132;SDS011;7667;51.232;17.110;2023-08-31T14:54:19;1.85;;;1.40;;
15132;SDS011;7667;51.232;17.110;2023-08-31T14:56:49;1.35;;;1.23;;
15132;SDS011;7667;51.232;17.110;2023-08-31T14:59:17;3.03;;;1.52;;
15132;SDS011;7667;51.232;17.110;2023-08-31T15:01:45;1.95;;;1.10;;
15132;SDS011;7667;51.232;17.110;2023-08-31T15:04:12;2.47;;;1.27;;
15132;SDS011;7667;51.232;17.110;2023-08-31T15:06:40;1.20;;;1.10;;
15132;SDS011;7667;51.232;17.110;2023-08-31T15:09:08;1.45;;;1.13;;
15132;SDS011;7667;51.232;17.110;2023-08-31T15:11:35;1.70;;;1.35;;
15132;SDS011;7667;51.232;17.110;2023-08-31T15:14:05;1.25;;;1.15;;
15132;SDS011;7667;51.232;17.110;2023-08-31T15:16:33;1.40;;;1.30;;
15132;SDS011;7667;51.232;17.110;2023-08-31T15:19:02;1.40;;;1.20;;
15132;SDS011;7667;51.232;17.110;2023-08-31T15:21:30;2.20;;;1.40;;
15132;SDS011;7667;51.232;17.110;2023-08-31T15:23:57;1.83;;;1.40;;
15132;SDS011;7667;51.232;17.110;2023-08-31T15:26:25;1.40;;;1.13;;
15132;SDS011;7667;51.232;17.110;2023-08-31T15:28:53;1.90;;;1.60;;
15132;SDS011;7667;51.232;17.110;2023-08-31T15:31:21;2.00;;;1.50;;